ADDS METAR Data INFO
IDs: Format: Raw Decoded Include TAF

Data at: 0418 UTC 18 Jan 2018

METAR for:KHTS (Huntington/Ferguson, WV, US)
Text:KHTS 180351Z 21004KT 10SM FEW110 M14/M16 A3047 RMK AO2 SLP335 T11391161
Temperature:-13.9°C ( 7°F)
Dewpoint:-16.1°C ( 3°F) [RH = 83%]
Pressure (altimeter):30.47 inches Hg (1031.9 mb) [Sea level pressure: 1033.5 mb]
Winds:from the SSW (210 degrees) at 5 MPH (4 knots; 2.1 m/s)
Visibility:10 or more sm (16+ km)
Ceiling:at least 12,000 feet AGL
Clouds: few clouds at 11000 feet AGL
Text:KHTS 180251Z 21004KT 9SM SCT024 M14/M17 A3049 RMK AO2 SLP340 T11391167 56006
Temperature:-13.9°C ( 7°F)
Dewpoint:-16.7°C ( 2°F) [RH = 79%]
Pressure (altimeter):30.49 inches Hg (1032.6 mb) [Sea level pressure: 1034.0 mb]
Winds:from the SSW (210 degrees) at 5 MPH (4 knots; 2.1 m/s)
Visibility: 9 sm ( 14 km)
Ceiling:at least 12,000 feet AGL
Clouds: scattered clouds at 2400 feet AGL
Text:KHTS 180151Z 20004KT 10SM CLR M13/M16 A3049 RMK AO2 SLP342 T11281161
Temperature:-12.8°C ( 9°F)
Dewpoint:-16.1°C ( 3°F) [RH = 76%]
Pressure (altimeter):30.49 inches Hg (1032.6 mb) [Sea level pressure: 1034.2 mb]
Winds:from the SSW (200 degrees) at 5 MPH (4 knots; 2.1 m/s)
Visibility:10 or more sm (16+ km)
Ceiling:at least 12,000 feet AGL
Clouds:sky clear below 12,000 feet AGL
Text:KHTS 180051Z AUTO 19003KT 10SM CLR M13/M17 A3049 RMK AO2 SLP343 T11281167
Temperature:-12.8°C ( 9°F)
Dewpoint:-16.7°C ( 2°F) [RH = 73%]
Pressure (altimeter):30.49 inches Hg (1032.6 mb) [Sea level pressure: 1034.3 mb]
Winds:from the S (190 degrees) at 3 MPH (3 knots; 1.5 m/s)
Visibility:10 or more sm (16+ km)
Ceiling:at least 12,000 feet AGL
Clouds:sky clear below 12,000 feet AGL
QC Flag:automated observation with no human augmentation
Text:KHTS 172351Z 17003KT 10SM CLR M12/M17 A3050 RMK AO2 SLP346 60000 T11221167 11100 21122 53000
Temperature:-12.2°C ( 10°F)
Dewpoint:-16.7°C ( 2°F) [RH = 69%]
Pressure (altimeter):30.50 inches Hg (1032.9 mb) [Sea level pressure: 1034.6 mb]
Winds:from the S (170 degrees) at 3 MPH (3 knots; 1.5 m/s)
Visibility:10 or more sm (16+ km)
Ceiling:at least 12,000 feet AGL
Clouds:sky clear below 12,000 feet AGL
Text:KHTS 172251Z 18003KT 10SM SCT022 M11/M16 A3049 RMK AO2 SLP343 T11111161
Temperature:-11.1°C ( 12°F)
Dewpoint:-16.1°C ( 3°F) [RH = 67%]
Pressure (altimeter):30.49 inches Hg (1032.6 mb) [Sea level pressure: 1034.3 mb]
Winds:from the S (180 degrees) at 3 MPH (3 knots; 1.5 m/s)
Visibility:10 or more sm (16+ km)
Ceiling:at least 12,000 feet AGL
Clouds: scattered clouds at 2200 feet AGL
Text:KHTS 172222Z 19004KT 10SM SCT023 M12/M16 A3049 RMK AO2 T11171161
Temperature:-11.7°C ( 11°F)
Dewpoint:-16.1°C ( 3°F) [RH = 70%]
Pressure (altimeter):30.49 inches Hg (1032.6 mb)
Winds:from the S (190 degrees) at 5 MPH (4 knots; 2.1 m/s)
Visibility:10 or more sm (16+ km)
Ceiling:at least 12,000 feet AGL
Clouds: scattered clouds at 2300 feet AGL
Text:KHTS 172151Z COR 17003KT 10SM SCT022 M11/M16 A3049 RMK AO2 SLP342 T11061156
Temperature:-10.6°C ( 13°F)
Dewpoint:-15.6°C ( 4°F) [RH = 67%]
Pressure (altimeter):30.49 inches Hg (1032.6 mb) [Sea level pressure: 1034.2 mb]
Winds:from the S (170 degrees) at 3 MPH (3 knots; 1.5 m/s)
Visibility:10 or more sm (16+ km)
Ceiling:at least 12,000 feet AGL
Clouds: scattered clouds at 2200 feet AGL
Text:KHTS 172051Z 20004KT 10SM OVC021 M11/M16 A3050 RMK AO2 SLP346 60000 T11061156 57010
Temperature:-10.6°C ( 13°F)
Dewpoint:-15.6°C ( 4°F) [RH = 67%]
Pressure (altimeter):30.50 inches Hg (1032.9 mb) [Sea level pressure: 1034.6 mb]
Winds:from the SSW (200 degrees) at 5 MPH (4 knots; 2.1 m/s)
Visibility:10 or more sm (16+ km)
Ceiling:2100 feet AGL
Clouds: overcast cloud deck at 2100 feet AGL
Text:KHTS 171951Z VRB03KT 10SM OVC019 M11/M16 A3052 RMK AO2 SLP350 T11061156
Temperature:-10.6°C ( 13°F)
Dewpoint:-15.6°C ( 4°F) [RH = 67%]
Pressure (altimeter):30.52 inches Hg (1033.6 mb) [Sea level pressure: 1035.0 mb]
Winds:variable direction winds at 3 MPH (3 knots; 1.5 m/s)
Visibility:10 or more sm (16+ km)
Ceiling:1900 feet AGL
Clouds: overcast cloud deck at 1900 feet AGL
Text:KHTS 171851Z VRB05KT 10SM OVC019 M11/M16 A3052 RMK AO2 SNE02 SLP353 P0000 T11061156
Temperature:-10.6°C ( 13°F)
Dewpoint:-15.6°C ( 4°F) [RH = 67%]
Pressure (altimeter):30.52 inches Hg (1033.6 mb) [Sea level pressure: 1035.3 mb]
Winds:variable direction winds at 6 MPH (5 knots; 2.6 m/s)
Visibility:10 or more sm (16+ km)
Ceiling:1900 feet AGL
Clouds: overcast cloud deck at 1900 feet AGL
Text:KHTS 171751Z 25006KT 6SM -SN OVC018 M12/M16 A3053 RMK AO2 SLP357 P0000 60000 T11171161 11117 21139 58005
Temperature:-11.7°C ( 11°F)
Dewpoint:-16.1°C ( 3°F) [RH = 70%]
Pressure (altimeter):30.53 inches Hg (1033.9 mb) [Sea level pressure: 1035.7 mb]
Winds:from the WSW (250 degrees) at 7 MPH (6 knots; 3.1 m/s)
Visibility: 6 sm ( 10 km)
Ceiling:1800 feet AGL
Clouds: overcast cloud deck at 1800 feet AGL
Weather:-SN (light snow)
Text:KHTS 171651Z VRB04KT 5SM -SN OVC018 M12/M17 A3055 RMK AO2 SNE02B19 SLP363 P0000 T11171167
Temperature:-11.7°C ( 11°F)
Dewpoint:-16.7°C ( 2°F) [RH = 66%]
Pressure (altimeter):30.55 inches Hg (1034.6 mb) [Sea level pressure: 1036.3 mb]
Winds:variable direction winds at 5 MPH (4 knots; 2.1 m/s)
Visibility: 5 sm ( 8 km)
Ceiling:1800 feet AGL
Clouds: overcast cloud deck at 1800 feet AGL
Weather:-SN (light snow)
Text:KHTS 171551Z VRB04KT 6SM -SN OVC018 M12/M17 A3056 RMK AO2 SNE31B51 SLP364 P0000 T11221167
Temperature:-12.2°C ( 10°F)
Dewpoint:-16.7°C ( 2°F) [RH = 69%]
Pressure (altimeter):30.56 inches Hg (1035.0 mb) [Sea level pressure: 1036.4 mb]
Winds:variable direction winds at 5 MPH (4 knots; 2.1 m/s)
Visibility: 6 sm ( 10 km)
Ceiling:1800 feet AGL
Clouds: overcast cloud deck at 1800 feet AGL
Weather:-SN (light snow)
Text:KHTS 171451Z 29003KT 4SM -SN OVC016 M13/M16 A3055 RMK AO2 SLP362 P0000 60000 T11281156 53005
Temperature:-12.8°C ( 9°F)
Dewpoint:-15.6°C ( 4°F) [RH = 79%]
Pressure (altimeter):30.55 inches Hg (1034.6 mb) [Sea level pressure: 1036.2 mb]
Winds:from the WNW (290 degrees) at 3 MPH (3 knots; 1.5 m/s)
Visibility: 4 sm ( 6 km)
Ceiling:1600 feet AGL
Clouds: overcast cloud deck at 1600 feet AGL
Weather:-SN (light snow)
Text:KHTS 171351Z 20003KT 4SM -SN BR OVC018 M14/M16 A3054 RMK AO2 SLP357 P0000 T11391161
Temperature:-13.9°C ( 7°F)
Dewpoint:-16.1°C ( 3°F) [RH = 83%]
Pressure (altimeter):30.54 inches Hg (1034.3 mb) [Sea level pressure: 1035.7 mb]
Winds:from the SSW (200 degrees) at 3 MPH (3 knots; 1.5 m/s)
Visibility: 4 sm ( 6 km)
Ceiling:1800 feet AGL
Clouds: overcast cloud deck at 1800 feet AGL
Weather:-SN BR (light snow, mist)
Text:KHTS 171251Z 21003KT 5SM -SN BR OVC017 M14/M16 A3054 RMK AO2 SLP357 P0000 T11391161
Temperature:-13.9°C ( 7°F)
Dewpoint:-16.1°C ( 3°F) [RH = 83%]
Pressure (altimeter):30.54 inches Hg (1034.3 mb) [Sea level pressure: 1035.7 mb]
Winds:from the SSW (210 degrees) at 3 MPH (3 knots; 1.5 m/s)
Visibility: 5 sm ( 8 km)
Ceiling:1700 feet AGL
Clouds: overcast cloud deck at 1700 feet AGL
Weather:-SN BR (light snow, mist)
Text:KHTS 171151Z 00000KT 4SM -SN BR OVC018 M14/M16 A3054 RMK AO2 SLP356 P0000 60000 70024 T11391161 11139 21144 53002
Temperature:-13.9°C ( 7°F)
Dewpoint:-16.1°C ( 3°F) [RH = 83%]
Pressure (altimeter):30.54 inches Hg (1034.3 mb) [Sea level pressure: 1035.6 mb]
Winds:calm
Visibility: 4 sm ( 6 km)
Ceiling:1800 feet AGL
Clouds: overcast cloud deck at 1800 feet AGL
Weather:-SN BR (light snow, mist)
Text:KHTS 171051Z 00000KT 7SM -SN OVC019 M14/M16 A3053 RMK AO2 SNE02B34 SLP355 P0000 T11391161
Temperature:-13.9°C ( 7°F)
Dewpoint:-16.1°C ( 3°F) [RH = 83%]
Pressure (altimeter):30.53 inches Hg (1033.9 mb) [Sea level pressure: 1035.5 mb]
Winds:calm
Visibility: 7 sm ( 11 km)
Ceiling:1900 feet AGL
Clouds: overcast cloud deck at 1900 feet AGL
Weather:-SN (light snow)
Text:KHTS 170951Z 00000KT 6SM -SN OVC020 M14/M17 A3052 RMK AO2 SLP352 P0000 T11441172
Temperature:-14.4°C ( 6°F)
Dewpoint:-17.2°C ( 1°F) [RH = 79%]
Pressure (altimeter):30.52 inches Hg (1033.6 mb) [Sea level pressure: 1035.2 mb]
Winds:calm
Visibility: 6 sm ( 10 km)
Ceiling:2000 feet AGL
Clouds: overcast cloud deck at 2000 feet AGL
Weather:-SN (light snow)
Text:KHTS 170851Z 22003KT 5SM -SN OVC021 M14/M17 A3053 RMK AO2 SNB18 SLP354 P0000 60000 T11441172 55001
Temperature:-14.4°C ( 6°F)
Dewpoint:-17.2°C ( 1°F) [RH = 79%]
Pressure (altimeter):30.53 inches Hg (1033.9 mb) [Sea level pressure: 1035.4 mb]
Winds:from the SW (220 degrees) at 3 MPH (3 knots; 1.5 m/s)
Visibility: 5 sm ( 8 km)
Ceiling:2100 feet AGL
Clouds: overcast cloud deck at 2100 feet AGL
Weather:-SN (light snow)
Text:KHTS 170751Z 21003KT 7SM OVC021 M14/M17 A3053 RMK AO2 SNB17E27 SLP353 P0000 T11441172
Temperature:-14.4°C ( 6°F)
Dewpoint:-17.2°C ( 1°F) [RH = 79%]
Pressure (altimeter):30.53 inches Hg (1033.9 mb) [Sea level pressure: 1035.3 mb]
Winds:from the SSW (210 degrees) at 3 MPH (3 knots; 1.5 m/s)
Visibility: 7 sm ( 11 km)
Ceiling:2100 feet AGL
Clouds: overcast cloud deck at 2100 feet AGL
Text:KHTS 170651Z 21004KT 7SM OVC022 M14/M17 A3053 RMK AO2 SNB29E51 SLP353 P0000 T11441167
Temperature:-14.4°C ( 6°F)
Dewpoint:-16.7°C ( 2°F) [RH = 83%]
Pressure (altimeter):30.53 inches Hg (1033.9 mb) [Sea level pressure: 1035.3 mb]
Winds:from the SSW (210 degrees) at 5 MPH (4 knots; 2.1 m/s)
Visibility: 7 sm ( 11 km)
Ceiling:2200 feet AGL
Clouds: overcast cloud deck at 2200 feet AGL
Text:KHTS 170551Z 22003KT 9SM BKN023 M14/M17 A3053 RMK AO2 SLP354 60000 T11441167 11100 21144 58003
Temperature:-14.4°C ( 6°F)
Dewpoint:-16.7°C ( 2°F) [RH = 83%]
Pressure (altimeter):30.53 inches Hg (1033.9 mb) [Sea level pressure: 1035.4 mb]
Winds:from the SW (220 degrees) at 3 MPH (3 knots; 1.5 m/s)
Visibility: 9 sm ( 14 km)
Ceiling:2300 feet AGL
Clouds: broken clouds at 2300 feet AGL
Text:KHTS 170451Z 22004KT 10SM OVC022 M14/M17 A3054 RMK AO2 SLP356 T11391172 400061139
Temperature:-13.9°C ( 7°F)
Dewpoint:-17.2°C ( 1°F) [RH = 76%]
Pressure (altimeter):30.54 inches Hg (1034.3 mb) [Sea level pressure: 1035.6 mb]
Winds:from the SW (220 degrees) at 5 MPH (4 knots; 2.1 m/s)
Visibility:10 or more sm (16+ km)
Ceiling:2200 feet AGL
Clouds: overcast cloud deck at 2200 feet AGL